sensor_id;sensor_type;location;lat;lon;timestamp;P1;durP1;ratioP1;P2;durP2;ratioP2
13208;SDS011;6669;42.678;23.332;2022-09-04T00:00:41;7.55;;;4.53;;
13208;SDS011;6669;42.678;23.332;2022-09-04T00:03:20;6.63;;;4.18;;
13208;SDS011;6669;42.678;23.332;2022-09-04T00:05:57;5.45;;;4.30;;
13208;SDS011;6669;42.678;23.332;2022-09-04T00:11:28;5.55;;;4.47;;
13208;SDS011;6669;42.678;23.332;2022-09-04T00:14:08;5.95;;;3.97;;
13208;SDS011;6669;42.678;23.332;2022-09-04T00:16:41;4.70;;;4.20;;
13208;SDS011;6669;42.678;23.332;2022-09-04T00:19:15;4.75;;;4.13;;
13208;SDS011;6669;42.678;23.332;2022-09-04T00:21:49;5.75;;;4.70;;
13208;SDS011;6669;42.678;23.332;2022-09-04T00:24:22;7.07;;;4.85;;
13208;SDS011;6669;42.678;23.332;2022-09-04T00:26:54;4.80;;;4.07;;
13208;SDS011;6669;42.678;23.332;2022-09-04T00:29:28;6.00;;;4.47;;
13208;SDS011;6669;42.678;23.332;2022-09-04T00:32:10;6.45;;;5.22;;
13208;SDS011;6669;42.678;23.332;2022-09-04T00:34:55;5.82;;;5.00;;
13208;SDS011;6669;42.678;23.332;2022-09-04T00:37:31;5.50;;;4.43;;
13208;SDS011;6669;42.678;23.332;2022-09-04T00:40:05;5.18;;;4.65;;
13208;SDS011;6669;42.678;23.332;2022-09-04T00:42:42;6.18;;;5.38;;
13208;SDS011;6669;42.678;23.332;2022-09-04T00:45:24;6.47;;;5.15;;
13208;SDS011;6669;42.678;23.332;2022-09-04T00:48:06;7.13;;;5.20;;
13208;SDS011;6669;42.678;23.332;2022-09-04T00:51:07;5.07;;;4.53;;
13208;SDS011;6669;42.678;23.332;2022-09-04T00:53:50;5.47;;;4.80;;
13208;SDS011;6669;42.678;23.332;2022-09-04T00:56:39;6.68;;;5.22;;
13208;SDS011;6669;42.678;23.332;2022-09-04T00:59:28;5.25;;;4.45;;
13208;SDS011;6669;42.678;23.332;2022-09-04T01:02:11;5.90;;;4.70;;
13208;SDS011;6669;42.678;23.332;2022-09-04T01:04:50;6.35;;;4.70;;
13208;SDS011;6669;42.678;23.332;2022-09-04T01:07:35;6.18;;;4.50;;
13208;SDS011;6669;42.678;23.332;2022-09-04T01:10:23;6.55;;;5.30;;
13208;SDS011;6669;42.678;23.332;2022-09-04T01:13:02;5.53;;;4.60;;
13208;SDS011;6669;42.678;23.332;2022-09-04T01:15:37;5.53;;;4.45;;
13208;SDS011;6669;42.678;23.332;2022-09-04T01:18:11;6.82;;;5.18;;
13208;SDS011;6669;42.678;23.332;2022-09-04T01:20:49;6.00;;;4.20;;
13208;SDS011;6669;42.678;23.332;2022-09-04T01:23:33;7.93;;;4.53;;
13208;SDS011;6669;42.678;23.332;2022-09-04T01:26:23;6.50;;;4.75;;
13208;SDS011;6669;42.678;23.332;2022-09-04T01:29:03;5.80;;;4.80;;
13208;SDS011;6669;42.678;23.332;2022-09-04T01:31:45;5.50;;;4.50;;
13208;SDS011;6669;42.678;23.332;2022-09-04T01:34:26;5.47;;;4.40;;
13208;SDS011;6669;42.678;23.332;2022-09-04T01:37:04;5.85;;;4.70;;
13208;SDS011;6669;42.678;23.332;2022-09-04T01:39:45;5.38;;;4.10;;
13208;SDS011;6669;42.678;23.332;2022-09-04T01:42:26;5.90;;;4.43;;
13208;SDS011;6669;42.678;23.332;2022-09-04T01:45:04;5.13;;;4.07;;
13208;SDS011;6669;42.678;23.332;2022-09-04T01:47:33;5.28;;;4.50;;
13208;SDS011;6669;42.678;23.332;2022-09-04T01:50:10;7.60;;;4.40;;
13208;SDS011;6669;42.678;23.332;2022-09-04T01:52:44;4.95;;;3.88;;
13208;SDS011;6669;42.678;23.332;2022-09-04T01:55:22;5.57;;;4.30;;
13208;SDS011;6669;42.678;23.332;2022-09-04T01:58:01;6.05;;;4.20;;
13208;SDS011;6669;42.678;23.332;2022-09-04T02:00:39;4.82;;;3.88;;
13208;SDS011;6669;42.678;23.332;2022-09-04T02:03:24;5.97;;;4.70;;
13208;SDS011;6669;42.678;23.332;2022-09-04T02:06:00;4.82;;;4.32;;
13208;SDS011;6669;42.678;23.332;2022-09-04T02:08:40;5.22;;;4.10;;
13208;SDS011;6669;42.678;23.332;2022-09-04T02:11:15;5.72;;;4.40;;
13208;SDS011;6669;42.678;23.332;2022-09-04T02:14:00;6.05;;;4.10;;
13208;SDS011;6669;42.678;23.332;2022-09-04T02:16:51;5.10;;;4.05;;
13208;SDS011;6669;42.678;23.332;2022-09-04T02:22:23;4.88;;;3.90;;
13208;SDS011;6669;42.678;23.332;2022-09-04T02:25:00;4.75;;;3.95;;
13208;SDS011;6669;42.678;23.332;2022-09-04T02:27:34;6.07;;;4.55;;
13208;SDS011;6669;42.678;23.332;2022-09-04T02:30:12;4.70;;;4.03;;
13208;SDS011;6669;42.678;23.332;2022-09-04T02:32:46;5.43;;;4.43;;
13208;SDS011;6669;42.678;23.332;2022-09-04T02:35:20;5.40;;;4.13;;
13208;SDS011;6669;42.678;23.332;2022-09-04T02:37:59;5.80;;;4.20;;
13208;SDS011;6669;42.678;23.332;2022-09-04T02:40:38;6.70;;;4.25;;
13208;SDS011;6669;42.678;23.332;2022-09-04T02:43:18;5.25;;;3.78;;
13208;SDS011;6669;42.678;23.332;2022-09-04T02:45:57;5.22;;;4.38;;
13208;SDS011;6669;42.678;23.332;2022-09-04T02:48:32;5.80;;;4.38;;
13208;SDS011;6669;42.678;23.332;2022-09-04T02:51:24;5.05;;;4.00;;
13208;SDS011;6669;42.678;23.332;2022-09-04T02:54:05;5.65;;;4.60;;
13208;SDS011;6669;42.678;23.332;2022-09-04T02:56:45;5.85;;;4.25;;
13208;SDS011;6669;42.678;23.332;2022-09-04T02:59:23;4.68;;;3.58;;
13208;SDS011;6669;42.678;23.332;2022-09-04T03:02:02;6.05;;;4.25;;
13208;SDS011;6669;42.678;23.332;2022-09-04T03:04:32;5.10;;;4.07;;
13208;SDS011;6669;42.678;23.332;2022-09-04T03:07:08;6.20;;;4.45;;
13208;SDS011;6669;42.678;23.332;2022-09-04T03:09:41;5.28;;;4.47;;
13208;SDS011;6669;42.678;23.332;2022-09-04T03:12:20;6.50;;;3.95;;
13208;SDS011;6669;42.678;23.332;2022-09-04T03:15:00;5.55;;;4.32;;
13208;SDS011;6669;42.678;23.332;2022-09-04T03:17:38;4.72;;;4.13;;
13208;SDS011;6669;42.678;23.332;2022-09-04T03:20:13;5.78;;;4.00;;
13208;SDS011;6669;42.678;23.332;2022-09-04T03:22:47;5.25;;;4.25;;
13208;SDS011;6669;42.678;23.332;2022-09-04T03:25:27;5.28;;;4.38;;
13208;SDS011;6669;42.678;23.332;2022-09-04T03:28:22;4.88;;;4.18;;
13208;SDS011;6669;42.678;23.332;2022-09-04T03:30:59;6.20;;;4.57;;
13208;SDS011;6669;42.678;23.332;2022-09-04T03:33:42;7.47;;;5.47;;
13208;SDS011;6669;42.678;23.332;2022-09-04T03:36:16;7.45;;;5.20;;
13208;SDS011;6669;42.678;23.332;2022-09-04T03:38:51;7.47;;;5.28;;
13208;SDS011;6669;42.678;23.332;2022-09-04T03:41:29;7.22;;;5.90;;
13208;SDS011;6669;42.678;23.332;2022-09-04T03:44:10;9.52;;;6.30;;
13208;SDS011;6669;42.678;23.332;2022-09-04T03:46:49;7.68;;;5.18;;
13208;SDS011;6669;42.678;23.332;2022-09-04T03:49:29;8.63;;;5.65;;
13208;SDS011;6669;42.678;23.332;2022-09-04T03:52:12;8.23;;;5.88;;
13208;SDS011;6669;42.678;23.332;2022-09-04T03:54:51;9.15;;;5.35;;
13208;SDS011;6669;42.678;23.332;2022-09-04T03:57:38;8.20;;;5.07;;
13208;SDS011;6669;42.678;23.332;2022-09-04T04:00:15;7.25;;;4.82;;
13208;SDS011;6669;42.678;23.332;2022-09-04T04:03:00;7.65;;;5.28;;
13208;SDS011;6669;42.678;23.332;2022-09-04T04:05:40;6.07;;;4.90;;
13208;SDS011;6669;42.678;23.332;2022-09-04T04:08:28;6.68;;;4.70;;
13208;SDS011;6669;42.678;23.332;2022-09-04T04:11:33;9.00;;;5.07;;
13208;SDS011;6669;42.678;23.332;2022-09-04T04:14:26;6.47;;;4.90;;
13208;SDS011;6669;42.678;23.332;2022-09-04T04:17:07;7.43;;;4.65;;
13208;SDS011;6669;42.678;23.332;2022-09-04T04:19:51;5.03;;;4.15;;
13208;SDS011;6669;42.678;23.332;2022-09-04T04:22:41;7.10;;;5.05;;
13208;SDS011;6669;42.678;23.332;2022-09-04T04:25:30;5.55;;;4.05;;
13208;SDS011;6669;42.678;23.332;2022-09-04T04:28:15;4.45;;;3.88;;
13208;SDS011;6669;42.678;23.332;2022-09-04T04:30:58;8.13;;;5.38;;
13208;SDS011;6669;42.678;23.332;2022-09-04T04:33:39;6.47;;;4.50;;
13208;SDS011;6669;42.678;23.332;2022-09-04T04:36:18;6.97;;;4.70;;
13208;SDS011;6669;42.678;23.332;2022-09-04T04:38:59;7.53;;;5.55;;
13208;SDS011;6669;42.678;23.332;2022-09-04T04:41:49;8.52;;;4.85;;
13208;SDS011;6669;42.678;23.332;2022-09-04T04:44:38;7.05;;;5.32;;
13208;SDS011;6669;42.678;23.332;2022-09-04T04:47:41;7.45;;;4.80;;
13208;SDS011;6669;42.678;23.332;2022-09-04T04:50:24;7.10;;;5.57;;
13208;SDS011;6669;42.678;23.332;2022-09-04T04:53:03;5.50;;;4.35;;
13208;SDS011;6669;42.678;23.332;2022-09-04T04:55:43;5.85;;;3.60;;
13208;SDS011;6669;42.678;23.332;2022-09-04T04:58:23;8.13;;;4.70;;
13208;SDS011;6669;42.678;23.332;2022-09-04T05:00:59;6.20;;;4.30;;
13208;SDS011;6669;42.678;23.332;2022-09-04T05:03:35;6.35;;;4.75;;
13208;SDS011;6669;42.678;23.332;2022-09-04T05:06:13;7.32;;;5.28;;
13208;SDS011;6669;42.678;23.332;2022-09-04T05:08:49;7.63;;;4.90;;
13208;SDS011;6669;42.678;23.332;2022-09-04T05:11:25;8.95;;;5.63;;
13208;SDS011;6669;42.678;23.332;2022-09-04T05:14:04;6.80;;;4.93;;
13208;SDS011;6669;42.678;23.332;2022-09-04T05:16:48;6.35;;;5.38;;
13208;SDS011;6669;42.678;23.332;2022-09-04T05:19:23;7.05;;;5.18;;
13208;SDS011;6669;42.678;23.332;2022-09-04T05:22:01;6.47;;;4.95;;
13208;SDS011;6669;42.678;23.332;2022-09-04T05:24:37;6.75;;;4.70;;
13208;SDS011;6669;42.678;23.332;2022-09-04T05:30:31;6.70;;;4.85;;
13208;SDS011;6669;42.678;23.332;2022-09-04T05:33:11;8.50;;;5.00;;
13208;SDS011;6669;42.678;23.332;2022-09-04T05:35:46;9.63;;;5.45;;
13208;SDS011;6669;42.678;23.332;2022-09-04T05:38:21;6.47;;;5.25;;
13208;SDS011;6669;42.678;23.332;2022-09-04T05:41:02;8.70;;;5.40;;
13208;SDS011;6669;42.678;23.332;2022-09-04T05:43:39;5.55;;;4.53;;
13208;SDS011;6669;42.678;23.332;2022-09-04T05:46:18;6.00;;;5.10;;
13208;SDS011;6669;42.678;23.332;2022-09-04T05:49:07;5.75;;;5.03;;
13208;SDS011;6669;42.678;23.332;2022-09-04T05:51:54;7.85;;;5.20;;
13208;SDS011;6669;42.678;23.332;2022-09-04T05:54:56;7.13;;;4.78;;
13208;SDS011;6669;42.678;23.332;2022-09-04T05:57:43;7.00;;;5.05;;
13208;SDS011;6669;42.678;23.332;2022-09-04T06:00:24;6.38;;;4.93;;
13208;SDS011;6669;42.678;23.332;2022-09-04T06:06:15;5.95;;;5.20;;
13208;SDS011;6669;42.678;23.332;2022-09-04T06:09:05;6.25;;;5.55;;
13208;SDS011;6669;42.678;23.332;2022-09-04T06:11:55;6.65;;;5.10;;
13208;SDS011;6669;42.678;23.332;2022-09-04T06:14:50;6.47;;;5.25;;
13208;SDS011;6669;42.678;23.332;2022-09-04T06:17:34;6.93;;;5.25;;
13208;SDS011;6669;42.678;23.332;2022-09-04T06:20:20;7.32;;;5.20;;
13208;SDS011;6669;42.678;23.332;2022-09-04T06:23:15;5.82;;;4.78;;
13208;SDS011;6669;42.678;23.332;2022-09-04T06:25:56;6.45;;;5.35;;
13208;SDS011;6669;42.678;23.332;2022-09-04T06:28:54;6.50;;;5.25;;
13208;SDS011;6669;42.678;23.332;2022-09-04T06:31:44;7.10;;;5.18;;
13208;SDS011;6669;42.678;23.332;2022-09-04T06:34:36;7.80;;;6.00;;
13208;SDS011;6669;42.678;23.332;2022-09-04T06:37:28;8.13;;;6.13;;
13208;SDS011;6669;42.678;23.332;2022-09-04T06:40:18;7.28;;;6.15;;
13208;SDS011;6669;42.678;23.332;2022-09-04T06:43:02;11.48;;;7.72;;
13208;SDS011;6669;42.678;23.332;2022-09-04T06:45:45;12.00;;;7.53;;
13208;SDS011;6669;42.678;23.332;2022-09-04T06:48:28;9.80;;;6.70;;
13208;SDS011;6669;42.678;23.332;2022-09-04T06:51:10;11.30;;;7.05;;
13208;SDS011;6669;42.678;23.332;2022-09-04T06:53:54;9.25;;;7.28;;
13208;SDS011;6669;42.678;23.332;2022-09-04T06:56:40;9.50;;;6.75;;
13208;SDS011;6669;42.678;23.332;2022-09-04T07:02:40;9.55;;;6.72;;
13208;SDS011;6669;42.678;23.332;2022-09-04T07:05:30;8.20;;;6.50;;
13208;SDS011;6669;42.678;23.332;2022-09-04T07:08:10;8.63;;;6.75;;
13208;SDS011;6669;42.678;23.332;2022-09-04T07:10:46;9.20;;;6.75;;
13208;SDS011;6669;42.678;23.332;2022-09-04T07:13:38;8.80;;;6.85;;
13208;SDS011;6669;42.678;23.332;2022-09-04T07:16:24;8.20;;;6.68;;
13208;SDS011;6669;42.678;23.332;2022-09-04T07:19:09;7.20;;;5.85;;
13208;SDS011;6669;42.678;23.332;2022-09-04T07:21:47;7.60;;;5.88;;
13208;SDS011;6669;42.678;23.332;2022-09-04T07:24:37;7.72;;;5.32;;
13208;SDS011;6669;42.678;23.332;2022-09-04T07:27:13;7.57;;;5.40;;
13208;SDS011;6669;42.678;23.332;2022-09-04T07:29:48;8.20;;;5.68;;
13208;SDS011;6669;42.678;23.332;2022-09-04T07:32:22;7.15;;;5.22;;
13208;SDS011;6669;42.678;23.332;2022-09-04T07:34:58;7.20;;;5.35;;
13208;SDS011;6669;42.678;23.332;2022-09-04T07:37:34;6.18;;;5.57;;
13208;SDS011;6669;42.678;23.332;2022-09-04T07:40:13;8.02;;;5.75;;
13208;SDS011;6669;42.678;23.332;2022-09-04T07:42:45;6.88;;;5.13;;
13208;SDS011;6669;42.678;23.332;2022-09-04T07:45:20;5.90;;;4.93;;
13208;SDS011;6669;42.678;23.332;2022-09-04T07:47:58;6.25;;;5.10;;
13208;SDS011;6669;42.678;23.332;2022-09-04T07:50:34;7.45;;;4.80;;
13208;SDS011;6669;42.678;23.332;2022-09-04T07:53:10;6.15;;;4.80;;
13208;SDS011;6669;42.678;23.332;2022-09-04T07:55:47;5.03;;;4.47;;
13208;SDS011;6669;42.678;23.332;2022-09-04T08:01:18;6.57;;;5.35;;
13208;SDS011;6669;42.678;23.332;2022-09-04T08:03:58;5.75;;;4.72;;
13208;SDS011;6669;42.678;23.332;2022-09-04T08:06:42;6.28;;;5.22;;
13208;SDS011;6669;42.678;23.332;2022-09-04T08:09:22;6.60;;;5.07;;
13208;SDS011;6669;42.678;23.332;2022-09-04T08:12:22;6.13;;;4.65;;
13208;SDS011;6669;42.678;23.332;2022-09-04T08:15:12;6.63;;;5.03;;
13208;SDS011;6669;42.678;23.332;2022-09-04T08:20:38;6.13;;;4.85;;
13208;SDS011;6669;42.678;23.332;2022-09-04T08:23:15;5.15;;;4.57;;
13208;SDS011;6669;42.678;23.332;2022-09-04T08:25:57;5.10;;;4.60;;
13208;SDS011;6669;42.678;23.332;2022-09-04T08:28:45;5.50;;;4.45;;
13208;SDS011;6669;42.678;23.332;2022-09-04T08:31:29;5.25;;;4.40;;
13208;SDS011;6669;42.678;23.332;2022-09-04T08:34:05;4.80;;;4.20;;
13208;SDS011;6669;42.678;23.332;2022-09-04T08:36:53;5.15;;;4.35;;
13208;SDS011;6669;42.678;23.332;2022-09-04T08:39:30;5.35;;;4.68;;
13208;SDS011;6669;42.678;23.332;2022-09-04T08:45:25;5.40;;;4.15;;
13208;SDS011;6669;42.678;23.332;2022-09-04T08:55:15;5.40;;;3.70;;
13208;SDS011;6669;42.678;23.332;2022-09-04T09:01:18;3.22;;;2.92;;
13208;SDS011;6669;42.678;23.332;2022-09-04T09:04:17;3.97;;;2.90;;
13208;SDS011;6669;42.678;23.332;2022-09-04T09:16:02;2.92;;;2.60;;
13208;SDS011;6669;42.678;23.332;2022-09-04T09:19:10;2.53;;;2.33;;
13208;SDS011;6669;42.678;23.332;2022-09-04T09:22:02;3.00;;;2.70;;
13208;SDS011;6669;42.678;23.332;2022-09-04T09:27:49;2.65;;;2.45;;
13208;SDS011;6669;42.678;23.332;2022-09-04T09:30:47;2.55;;;2.20;;
13208;SDS011;6669;42.678;23.332;2022-09-04T09:40:12;2.13;;;2.00;;
13208;SDS011;6669;42.678;23.332;2022-09-04T09:43:17;3.40;;;2.70;;
13208;SDS011;6669;42.678;23.332;2022-09-04T09:46:10;3.05;;;2.50;;
13208;SDS011;6669;42.678;23.332;2022-09-04T09:49:04;2.78;;;2.50;;
13208;SDS011;6669;42.678;23.332;2022-09-04T09:52:04;3.20;;;2.63;;
13208;SDS011;6669;42.678;23.332;2022-09-04T10:00:50;2.70;;;2.50;;
13208;SDS011;6669;42.678;23.332;2022-09-04T10:03:48;3.47;;;2.75;;
13208;SDS011;6669;42.678;23.332;2022-09-04T10:06:46;3.28;;;2.67;;
13208;SDS011;6669;42.678;23.332;2022-09-04T10:13:06;2.78;;;2.55;;
13208;SDS011;6669;42.678;23.332;2022-09-04T10:25:12;2.88;;;2.60;;
13208;SDS011;6669;42.678;23.332;2022-09-04T10:28:01;2.67;;;2.47;;
13208;SDS011;6669;42.678;23.332;2022-09-04T10:31:00;3.47;;;2.53;;
13208;SDS011;6669;42.678;23.332;2022-09-04T10:33:50;3.22;;;2.50;;
13208;SDS011;6669;42.678;23.332;2022-09-04T10:36:33;2.85;;;2.60;;
13208;SDS011;6669;42.678;23.332;2022-09-04T10:39:16;2.60;;;2.40;;
13208;SDS011;6669;42.678;23.332;2022-09-04T10:42:14;2.20;;;1.98;;
13208;SDS011;6669;42.678;23.332;2022-09-04T10:45:11;2.75;;;2.50;;
13208;SDS011;6669;42.678;23.332;2022-09-04T10:50:55;2.58;;;2.38;;
13208;SDS011;6669;42.678;23.332;2022-09-04T10:53:44;2.60;;;2.40;;
13208;SDS011;6669;42.678;23.332;2022-09-04T10:56:34;2.67;;;2.45;;
13208;SDS011;6669;42.678;23.332;2022-09-04T10:59:23;2.80;;;2.40;;
13208;SDS011;6669;42.678;23.332;2022-09-04T11:02:14;3.72;;;2.70;;
13208;SDS011;6669;42.678;23.332;2022-09-04T11:05:12;2.10;;;2.00;;
13208;SDS011;6669;42.678;23.332;2022-09-04T11:07:54;2.28;;;2.08;;
13208;SDS011;6669;42.678;23.332;2022-09-04T11:10:58;2.63;;;2.42;;
13208;SDS011;6669;42.678;23.332;2022-09-04T11:16:44;2.53;;;2.30;;
13208;SDS011;6669;42.678;23.332;2022-09-04T11:19:57;2.30;;;2.10;;
13208;SDS011;6669;42.678;23.332;2022-09-04T11:22:58;2.10;;;1.90;;
13208;SDS011;6669;42.678;23.332;2022-09-04T11:26:10;2.22;;;2.10;;
13208;SDS011;6669;42.678;23.332;2022-09-04T11:35:43;2.20;;;2.03;;
13208;SDS011;6669;42.678;23.332;2022-09-04T11:45:10;2.00;;;1.90;;
13208;SDS011;6669;42.678;23.332;2022-09-04T11:48:04;2.38;;;2.17;;
13208;SDS011;6669;42.678;23.332;2022-09-04T11:50:49;2.30;;;2.10;;
13208;SDS011;6669;42.678;23.332;2022-09-04T11:53:35;2.63;;;2.00;;
13208;SDS011;6669;42.678;23.332;2022-09-04T11:56:29;2.25;;;2.05;;
13208;SDS011;6669;42.678;23.332;2022-09-04T11:59:15;2.47;;;2.10;;
13208;SDS011;6669;42.678;23.332;2022-09-04T12:02:05;2.30;;;2.10;;
13208;SDS011;6669;42.678;23.332;2022-09-04T12:04:57;1.98;;;1.88;;
13208;SDS011;6669;42.678;23.332;2022-09-04T12:07:41;2.00;;;1.90;;
13208;SDS011;6669;42.678;23.332;2022-09-04T12:13:23;2.00;;;1.80;;
13208;SDS011;6669;42.678;23.332;2022-09-04T12:16:28;1.83;;;1.67;;
13208;SDS011;6669;42.678;23.332;2022-09-04T12:29:18;1.80;;;1.70;;
13208;SDS011;6669;42.678;23.332;2022-09-04T12:38:20;2.22;;;2.10;;
13208;SDS011;6669;42.678;23.332;2022-09-04T12:41:06;2.22;;;2.00;;
13208;SDS011;6669;42.678;23.332;2022-09-04T12:43:47;1.98;;;1.88;;
13208;SDS011;6669;42.678;23.332;2022-09-04T12:46:34;1.83;;;1.70;;
13208;SDS011;6669;42.678;23.332;2022-09-04T12:49:28;1.80;;;1.70;;
13208;SDS011;6669;42.678;23.332;2022-09-04T12:52:13;1.65;;;1.55;;
13208;SDS011;6669;42.678;23.332;2022-09-04T12:54:50;1.85;;;1.75;;
13208;SDS011;6669;42.678;23.332;2022-09-04T12:57:31;2.15;;;1.95;;
13208;SDS011;6669;42.678;23.332;2022-09-04T13:00:10;2.65;;;1.92;;
13208;SDS011;6669;42.678;23.332;2022-09-04T13:02:44;2.13;;;1.90;;
13208;SDS011;6669;42.678;23.332;2022-09-04T13:05:31;2.08;;;1.90;;
13208;SDS011;6669;42.678;23.332;2022-09-04T13:08:22;1.77;;;1.67;;
13208;SDS011;6669;42.678;23.332;2022-09-04T13:11:04;1.77;;;1.65;;
13208;SDS011;6669;42.678;23.332;2022-09-04T13:13:46;1.48;;;1.38;;
13208;SDS011;6669;42.678;23.332;2022-09-04T13:16:27;1.73;;;1.63;;
13208;SDS011;6669;42.678;23.332;2022-09-04T13:19:06;1.40;;;1.30;;
13208;SDS011;6669;42.678;23.332;2022-09-04T13:21:50;1.48;;;1.38;;
13208;SDS011;6669;42.678;23.332;2022-09-04T13:24:35;1.63;;;1.52;;
13208;SDS011;6669;42.678;23.332;2022-09-04T13:27:20;1.80;;;1.70;;
13208;SDS011;6669;42.678;23.332;2022-09-04T13:30:04;1.50;;;1.40;;
13208;SDS011;6669;42.678;23.332;2022-09-04T13:32:44;1.65;;;1.55;;
13208;SDS011;6669;42.678;23.332;2022-09-04T13:35:23;2.13;;;1.70;;
13208;SDS011;6669;42.678;23.332;2022-09-04T13:38:17;1.65;;;1.48;;
13208;SDS011;6669;42.678;23.332;2022-09-04T13:41:10;1.70;;;1.60;;
13208;SDS011;6669;42.678;23.332;2022-09-04T13:43:50;1.75;;;1.65;;
13208;SDS011;6669;42.678;23.332;2022-09-04T13:46:31;1.75;;;1.63;;
13208;SDS011;6669;42.678;23.332;2022-09-04T13:49:07;1.60;;;1.50;;
13208;SDS011;6669;42.678;23.332;2022-09-04T13:51:40;1.85;;;1.70;;
13208;SDS011;6669;42.678;23.332;2022-09-04T13:54:12;1.70;;;1.60;;
13208;SDS011;6669;42.678;23.332;2022-09-04T13:56:48;1.70;;;1.60;;
13208;SDS011;6669;42.678;23.332;2022-09-04T13:59:21;1.55;;;1.45;;
13208;SDS011;6669;42.678;23.332;2022-09-04T14:01:52;1.73;;;1.63;;
13208;SDS011;6669;42.678;23.332;2022-09-04T14:04:28;3.88;;;1.67;;
13208;SDS011;6669;42.678;23.332;2022-09-04T14:07:02;1.55;;;1.45;;
13208;SDS011;6669;42.678;23.332;2022-09-04T14:09:37;1.50;;;1.40;;
13208;SDS011;6669;42.678;23.332;2022-09-04T14:12:11;1.38;;;1.27;;
13208;SDS011;6669;42.678;23.332;2022-09-04T14:18:33;1.48;;;1.38;;
13208;SDS011;6669;42.678;23.332;2022-09-04T14:21:15;1.60;;;1.50;;
13208;SDS011;6669;42.678;23.332;2022-09-04T14:23:53;1.60;;;1.50;;
13208;SDS011;6669;42.678;23.332;2022-09-04T14:26:31;1.58;;;1.48;;
13208;SDS011;6669;42.678;23.332;2022-09-04T14:29:10;1.40;;;1.30;;
13208;SDS011;6669;42.678;23.332;2022-09-04T14:31:48;1.70;;;1.60;;
13208;SDS011;6669;42.678;23.332;2022-09-04T14:34:32;1.50;;;1.40;;
13208;SDS011;6669;42.678;23.332;2022-09-04T14:37:14;1.67;;;1.58;;
13208;SDS011;6669;42.678;23.332;2022-09-04T14:39:56;1.83;;;1.60;;
13208;SDS011;6669;42.678;23.332;2022-09-04T14:42:34;2.08;;;1.60;;
13208;SDS011;6669;42.678;23.332;2022-09-04T14:45:24;1.40;;;1.25;;
13208;SDS011;6669;42.678;23.332;2022-09-04T14:48:02;1.45;;;1.35;;
13208;SDS011;6669;42.678;23.332;2022-09-04T14:50:42;1.50;;;1.40;;
13208;SDS011;6669;42.678;23.332;2022-09-04T14:53:19;2.60;;;1.60;;
13208;SDS011;6669;42.678;23.332;2022-09-04T14:58:44;1.70;;;1.60;;
13208;SDS011;6669;42.678;23.332;2022-09-04T15:01:17;2.13;;;1.90;;
13208;SDS011;6669;42.678;23.332;2022-09-04T15:03:48;1.55;;;1.45;;
13208;SDS011;6669;42.678;23.332;2022-09-04T15:06:23;1.45;;;1.35;;
13208;SDS011;6669;42.678;23.332;2022-09-04T15:11:48;1.70;;;1.60;;
13208;SDS011;6669;42.678;23.332;2022-09-04T15:14:38;1.92;;;1.48;;
13208;SDS011;6669;42.678;23.332;2022-09-04T15:17:09;1.48;;;1.38;;
13208;SDS011;6669;42.678;23.332;2022-09-04T15:19:45;2.00;;;1.88;;
13208;SDS011;6669;42.678;23.332;2022-09-04T15:22:21;1.60;;;1.30;;
13208;SDS011;6669;42.678;23.332;2022-09-04T15:24:59;1.50;;;1.40;;
13208;SDS011;6669;42.678;23.332;2022-09-04T15:27:37;1.63;;;1.52;;
13208;SDS011;6669;42.678;23.332;2022-09-04T15:30:16;1.55;;;1.45;;
13208;SDS011;6669;42.678;23.332;2022-09-04T15:32:47;1.60;;;1.40;;
13208;SDS011;6669;42.678;23.332;2022-09-04T15:35:20;1.50;;;1.40;;
13208;SDS011;6669;42.678;23.332;2022-09-04T15:38:02;2.90;;;1.63;;
13208;SDS011;6669;42.678;23.332;2022-09-04T15:40:34;1.67;;;1.58;;
13208;SDS011;6669;42.678;23.332;2022-09-04T15:43:31;1.95;;;1.63;;
13208;SDS011;6669;42.678;23.332;2022-09-04T15:46:04;1.73;;;1.58;;
13208;SDS011;6669;42.678;23.332;2022-09-04T15:48:41;1.80;;;1.70;;
13208;SDS011;6669;42.678;23.332;2022-09-04T15:51:20;2.80;;;1.60;;
13208;SDS011;6669;42.678;23.332;2022-09-04T15:54:11;2.22;;;1.70;;
13208;SDS011;6669;42.678;23.332;2022-09-04T15:56:54;1.42;;;1.33;;
13208;SDS011;6669;42.678;23.332;2022-09-04T15:59:29;2.15;;;1.65;;
13208;SDS011;6669;42.678;23.332;2022-09-04T16:02:10;1.95;;;1.80;;
13208;SDS011;6669;42.678;23.332;2022-09-04T16:04:51;1.80;;;1.70;;
13208;SDS011;6669;42.678;23.332;2022-09-04T16:07:32;1.80;;;1.70;;
13208;SDS011;6669;42.678;23.332;2022-09-04T16:10:10;1.70;;;1.60;;
13208;SDS011;6669;42.678;23.332;2022-09-04T16:12:49;1.65;;;1.55;;
13208;SDS011;6669;42.678;23.332;2022-09-04T16:15:24;1.75;;;1.65;;
13208;SDS011;6669;42.678;23.332;2022-09-04T16:17:57;1.50;;;1.40;;
13208;SDS011;6669;42.678;23.332;2022-09-04T16:20:31;2.35;;;1.90;;
13208;SDS011;6669;42.678;23.332;2022-09-04T16:23:03;1.75;;;1.52;;
13208;SDS011;6669;42.678;23.332;2022-09-04T16:25:34;2.10;;;1.88;;
13208;SDS011;6669;42.678;23.332;2022-09-04T16:28:10;1.90;;;1.70;;
13208;SDS011;6669;42.678;23.332;2022-09-04T16:30:45;2.50;;;1.95;;
13208;SDS011;6669;42.678;23.332;2022-09-04T16:33:21;2.17;;;1.98;;
13208;SDS011;6669;42.678;23.332;2022-09-04T16:35:56;2.10;;;1.83;;
13208;SDS011;6669;42.678;23.332;2022-09-04T16:38:29;2.60;;;2.17;;
13208;SDS011;6669;42.678;23.332;2022-09-04T16:41:06;1.80;;;1.70;;
13208;SDS011;6669;42.678;23.332;2022-09-04T16:43:40;1.90;;;1.77;;
13208;SDS011;6669;42.678;23.332;2022-09-04T16:46:34;1.80;;;1.60;;
13208;SDS011;6669;42.678;23.332;2022-09-04T16:49:05;1.80;;;1.70;;
13208;SDS011;6669;42.678;23.332;2022-09-04T16:51:45;2.30;;;2.05;;
13208;SDS011;6669;42.678;23.332;2022-09-04T16:54:19;1.95;;;1.75;;
13208;SDS011;6669;42.678;23.332;2022-09-04T16:56:54;2.70;;;2.10;;
13208;SDS011;6669;42.678;23.332;2022-09-04T16:59:41;1.95;;;1.75;;
13208;SDS011;6669;42.678;23.332;2022-09-04T17:02:15;1.98;;;1.70;;
13208;SDS011;6669;42.678;23.332;2022-09-04T17:04:50;2.15;;;1.95;;
13208;SDS011;6669;42.678;23.332;2022-09-04T17:07:27;1.63;;;1.52;;
13208;SDS011;6669;42.678;23.332;2022-09-04T17:10:01;2.03;;;1.83;;
13208;SDS011;6669;42.678;23.332;2022-09-04T17:12:40;2.35;;;2.10;;
13208;SDS011;6669;42.678;23.332;2022-09-04T17:15:24;2.65;;;2.45;;
13208;SDS011;6669;42.678;23.332;2022-09-04T17:17:57;2.42;;;2.22;;
13208;SDS011;6669;42.678;23.332;2022-09-04T17:20:34;2.83;;;2.20;;
13208;SDS011;6669;42.678;23.332;2022-09-04T17:23:28;2.58;;;2.30;;
13208;SDS011;6669;42.678;23.332;2022-09-04T17:26:24;3.25;;;2.40;;
13208;SDS011;6669;42.678;23.332;2022-09-04T17:29:22;2.55;;;2.33;;
13208;SDS011;6669;42.678;23.332;2022-09-04T17:32:05;2.67;;;2.13;;
13208;SDS011;6669;42.678;23.332;2022-09-04T17:35:00;2.20;;;2.00;;
13208;SDS011;6669;42.678;23.332;2022-09-04T17:38:01;2.50;;;2.30;;
13208;SDS011;6669;42.678;23.332;2022-09-04T17:41:01;2.30;;;2.10;;
13208;SDS011;6669;42.678;23.332;2022-09-04T17:44:13;2.40;;;2.20;;
13208;SDS011;6669;42.678;23.332;2022-09-04T17:47:01;2.45;;;2.20;;
13208;SDS011;6669;42.678;23.332;2022-09-04T17:49:40;3.00;;;2.00;;
13208;SDS011;6669;42.678;23.332;2022-09-04T17:52:18;2.10;;;1.90;;
13208;SDS011;6669;42.678;23.332;2022-09-04T17:54:49;2.97;;;2.50;;
13208;SDS011;6669;42.678;23.332;2022-09-04T17:57:19;2.60;;;2.40;;
13208;SDS011;6669;42.678;23.332;2022-09-04T17:59:55;2.50;;;2.20;;
13208;SDS011;6669;42.678;23.332;2022-09-04T18:02:34;3.05;;;2.75;;
13208;SDS011;6669;42.678;23.332;2022-09-04T18:05:10;3.78;;;3.42;;
13208;SDS011;6669;42.678;23.332;2022-09-04T18:07:46;5.63;;;4.63;;
13208;SDS011;6669;42.678;23.332;2022-09-04T18:10:38;3.72;;;2.88;;
13208;SDS011;6669;42.678;23.332;2022-09-04T18:13:20;4.25;;;3.00;;
13208;SDS011;6669;42.678;23.332;2022-09-04T18:16:06;2.80;;;2.60;;
13208;SDS011;6669;42.678;23.332;2022-09-04T18:18:45;3.47;;;2.92;;